createdAt,value
2023-01-02T00:01:00.862Z,96274.94
2023-01-02T00:02:05.465Z,96271.44
2023-01-02T00:03:10.043Z,96265.59
2023-01-02T00:04:12.009Z,96260.41
2023-01-02T00:05:19.346Z,96267.81
2023-01-02T00:06:21.356Z,96267.31
2023-01-02T00:07:25.904Z,96255.56
2023-01-02T00:08:27.821Z,96257.00
2023-01-02T00:09:32.333Z,96250.78
2023-01-02T00:10:34.366Z,96249.63
2023-01-02T00:11:39.015Z,96249.47
2023-01-02T00:12:41.159Z,96251.06
2023-01-02T00:13:45.786Z,96243.75
2023-01-02T00:14:48.048Z,96240.56
2023-01-02T00:15:52.805Z,96241.66
2023-01-02T00:16:54.857Z,96243.50
2023-01-02T00:17:59.357Z,96238.25
2023-01-02T00:19:01.378Z,96237.41
2023-01-02T00:20:06.552Z,96227.66
2023-01-02T00:21:11.235Z,96231.28
2023-01-02T00:22:15.823Z,96233.09
2023-01-02T00:23:17.767Z,96229.03
2023-01-02T00:24:22.922Z,96229.19
2023-01-02T00:25:24.938Z,96233.69
2023-01-02T00:26:29.522Z,96234.63
2023-01-02T00:27:31.505Z,96237.28
2023-01-02T00:28:36.392Z,96233.19
2023-01-02T00:29:38.383Z,96229.00
2023-01-02T00:30:42.911Z,96233.28
2023-01-02T00:31:44.960Z,96230.78
2023-01-02T00:32:49.520Z,96228.78
2023-01-02T00:33:54.129Z,96230.78
2023-01-02T00:34:56.120Z,96228.00
2023-01-02T00:36:00.662Z,96219.28
2023-01-02T00:37:05.240Z,96219.88
2023-01-02T00:38:10.088Z,96227.00
2023-01-02T00:39:12.047Z,96227.84
2023-01-02T00:40:16.604Z,96225.81
2023-01-02T00:41:19.000Z,96231.03
2023-01-02T00:42:23.563Z,96218.63
2023-01-02T00:43:25.563Z,96221.94
2023-01-02T00:44:30.106Z,96219.44
2023-01-02T00:45:32.139Z,96216.09
2023-01-02T00:46:36.744Z,96222.53
2023-01-02T00:47:38.757Z,96211.69
2023-01-02T00:48:43.653Z,96214.72
2023-01-02T00:49:45.615Z,96215.44
2023-01-02T00:50:50.487Z,96215.72
2023-01-02T00:51:52.481Z,96210.88
2023-01-02T00:52:59.576Z,96208.69
2023-01-02T00:54:01.629Z,96216.09
2023-01-02T00:55:06.707Z,96208.47
2023-01-02T00:56:08.798Z,96221.81
2023-01-02T00:57:13.421Z,96223.22
2023-01-02T00:58:18.000Z,96215.59
2023-01-02T00:59:20.014Z,96213.59
2023-01-02T01:00:24.793Z,96208.72
2023-01-02T01:01:29.515Z,96216.44
2023-01-02T01:02:31.745Z,96219.97
2023-01-02T01:03:36.478Z,96217.53
2023-01-02T01:04:38.472Z,96213.75
2023-01-02T01:05:43.108Z,96213.94
2023-01-02T01:06:45.087Z,96213.25
2023-01-02T01:07:49.612Z,96202.94
2023-01-02T01:08:54.146Z,96207.72
2023-01-02T01:09:58.683Z,96210.50
2023-01-02T01:11:05.600Z,96205.59
2023-01-02T01:12:10.552Z,96212.06
2023-01-02T01:13:12.515Z,96215.00
2023-01-02T01:14:17.165Z,96213.63
2023-01-02T01:15:19.469Z,96219.91
2023-01-02T01:16:24.164Z,96218.63
2023-01-02T01:17:26.199Z,96225.91
2023-01-02T01:18:30.712Z,96231.34
2023-01-02T01:19:36.112Z,96231.81
2023-01-02T01:20:38.772Z,96220.25
2023-01-02T01:21:43.716Z,96224.97
2023-01-02T01:22:48.347Z,96233.16
2023-01-02T01:23:54.079Z,96231.94
2023-01-02T01:24:58.640Z,96230.56
2023-01-02T01:26:04.462Z,96234.38
2023-01-02T01:27:09.257Z,96233.84
2023-01-02T01:28:11.204Z,96230.69
2023-01-02T01:29:15.817Z,96231.00
2023-01-02T01:30:18.023Z,96232.09
2023-01-02T01:31:23.431Z,96233.22
2023-01-02T01:32:25.434Z,96234.06
2023-01-02T01:33:29.989Z,96227.78
2023-01-02T01:34:34.580Z,96228.72
2023-01-02T01:35:36.528Z,96227.13
2023-01-02T01:36:41.245Z,96228.88
2023-01-02T01:37:43.265Z,96228.03
2023-01-02T01:38:48.551Z,96225.44
2023-01-02T01:39:56.504Z,96231.47
2023-01-02T01:41:02.000Z,96227.28
2023-01-02T01:42:04.279Z,96238.31
2023-01-02T01:43:15.340Z,96231.31
2023-01-02T01:44:41.436Z,96227.59
2023-01-02T01:45:46.935Z,96225.53
2023-01-02T01:46:49.005Z,96224.56
2023-01-02T01:47:57.623Z,96225.91
2023-01-02T01:49:04.597Z,96217.59
2023-01-02T01:50:12.061Z,96221.47
2023-01-02T01:51:14.661Z,96212.69
2023-01-02T01:52:24.163Z,96211.59
2023-01-02T01:53:26.167Z,96215.94
2023-01-02T01:54:36.318Z,96217.72
2023-01-02T01:55:47.965Z,96221.13
2023-01-02T01:56:52.886Z,96220.25
2023-01-02T01:58:02.539Z,96221.06
2023-01-02T01:59:07.857Z,96219.66
2023-01-02T02:00:11.662Z,96217.50
2023-01-02T02:01:20.097Z,96215.50
2023-01-02T02:02:27.429Z,96215.00
2023-01-02T02:03:34.783Z,96218.03
2023-01-02T02:04:37.212Z,96219.44
2023-01-02T02:05:43.497Z,96222.09
2023-01-02T02:06:45.925Z,96221.19
2023-01-02T02:07:59.894Z,96219.88
2023-01-02T02:09:09.135Z,96216.91
2023-01-02T02:10:12.585Z,96223.06
2023-01-02T02:11:20.799Z,96219.91
2023-01-02T02:12:27.996Z,96222.50
2023-01-02T02:13:34.380Z,96216.88
2023-01-02T02:14:36.387Z,96217.03
2023-01-02T02:15:48.570Z,96212.16
2023-01-02T02:16:56.121Z,96220.25
2023-01-02T02:18:12.405Z,96218.16
2023-01-02T02:19:49.304Z,96216.78
2023-01-02T02:20:57.097Z,96215.44
2023-01-02T02:22:19.654Z,96215.75
2023-01-02T02:23:56.988Z,96223.81
2023-01-02T02:25:31.219Z,96226.00
2023-01-02T02:27:11.161Z,96229.03
2023-01-02T02:28:38.251Z,96227.81
2023-01-02T02:30:03.134Z,96223.22
2023-01-02T02:31:11.710Z,96227.94
2023-01-02T02:32:24.854Z,96221.63
2023-01-02T02:33:44.761Z,96226.69
2023-01-02T02:34:57.803Z,96224.69
2023-01-02T02:36:07.472Z,96216.53
2023-01-02T02:37:22.469Z,96217.91
2023-01-02T02:38:40.604Z,96218.34
2023-01-02T02:40:02.999Z,96218.88
2023-01-02T02:41:12.442Z,96224.47
2023-01-02T02:42:27.314Z,96229.03
2023-01-02T02:43:42.086Z,96224.81
2023-01-02T02:44:55.195Z,96216.47
2023-01-02T02:46:09.456Z,96223.59
2023-01-02T02:47:20.354Z,96221.25
2023-01-02T02:48:30.589Z,96222.63
2023-01-02T02:49:45.754Z,96216.03
2023-01-02T02:50:56.694Z,96217.97
2023-01-02T02:52:07.003Z,96213.97
2023-01-02T02:53:14.574Z,96216.94
2023-01-02T02:54:24.855Z,96218.91
2023-01-02T02:55:30.512Z,96223.44
2023-01-02T02:56:35.342Z,96220.09
2023-01-02T02:57:39.902Z,96218.44
2023-01-02T02:58:46.220Z,96219.66
2023-01-02T02:59:48.302Z,96221.59
2023-01-02T03:01:04.785Z,96216.63
2023-01-02T03:02:06.912Z,96212.56
2023-01-02T03:03:19.373Z,96199.75
2023-01-02T03:04:23.033Z,96210.22
2023-01-02T03:05:36.478Z,96203.41
2023-01-02T03:06:50.556Z,96201.81
2023-01-02T03:08:01.235Z,96203.75
2023-01-02T03:09:18.905Z,96207.22
2023-01-02T03:10:29.533Z,96206.47
2023-01-02T03:11:39.687Z,96199.69
2023-01-02T03:12:53.296Z,96199.69
2023-01-02T03:14:02.187Z,96200.50
2023-01-02T03:15:17.514Z,96199.56
2023-01-02T03:16:30.322Z,96206.38
2023-01-02T03:17:44.681Z,96196.06
2023-01-02T03:18:56.180Z,96198.59
2023-01-02T03:20:00.804Z,96193.16
2023-01-02T03:21:10.474Z,96201.63
2023-01-02T03:22:16.812Z,96207.63
2023-01-02T03:23:26.029Z,96202.31
2023-01-02T03:24:29.571Z,96206.59
2023-01-02T03:25:37.191Z,96204.03
2023-01-02T03:26:42.992Z,96200.47
2023-01-02T03:27:50.688Z,96202.63
2023-01-02T03:28:57.828Z,96199.91
2023-01-02T03:30:05.653Z,96198.94
2023-01-02T03:31:09.811Z,96197.88
2023-01-02T03:32:24.458Z,96198.72
2023-01-02T03:33:30.407Z,96193.56
2023-01-02T03:34:37.196Z,96198.66
2023-01-02T03:35:44.425Z,96202.53
2023-01-02T03:36:54.412Z,96193.06
2023-01-02T03:37:58.921Z,96187.06
2023-01-02T03:39:09.832Z,96194.22
2023-01-02T03:40:20.402Z,96190.59
2023-01-02T03:41:27.135Z,96188.56
2023-01-02T03:42:35.651Z,96185.84
2023-01-02T03:43:40.753Z,96186.63
2023-01-02T03:44:50.191Z,96189.13
2023-01-02T03:46:02.215Z,96187.38
2023-01-02T03:47:16.964Z,96192.50
2023-01-02T03:48:29.223Z,96189.97
2023-01-02T03:49:37.267Z,96189.91
2023-01-02T03:50:47.268Z,96189.06
2023-01-02T03:51:51.968Z,96190.72
2023-01-02T03:52:54.045Z,96197.66
2023-01-02T03:53:59.149Z,96190.03
2023-01-02T03:55:02.115Z,96197.94
2023-01-02T03:56:19.345Z,96200.72
2023-01-02T03:57:30.711Z,96196.81
2023-01-02T03:58:47.931Z,96204.00
2023-01-02T03:59:57.568Z,96199.09
2023-01-02T04:01:07.621Z,96197.69
2023-01-02T04:02:14.873Z,96196.25
2023-01-02T04:03:23.657Z,96209.25
2023-01-02T04:04:40.636Z,96207.06
2023-01-02T04:05:48.902Z,96206.47
2023-01-02T04:07:01.056Z,96201.56
2023-01-02T04:08:08.253Z,96206.22
2023-01-02T04:09:16.707Z,96208.94
2023-01-02T04:10:19.599Z,96206.59
2023-01-02T04:11:25.432Z,96204.91
2023-01-02T04:12:29.915Z,96197.09
2023-01-02T04:13:41.093Z,96202.41
2023-01-02T04:14:47.239Z,96205.94
2023-01-02T04:15:53.906Z,96203.53
2023-01-02T04:16:58.483Z,96202.00
2023-01-02T04:18:07.620Z,96205.44
2023-01-02T04:19:14.261Z,96211.38
2023-01-02T04:20:26.115Z,96208.69
2023-01-02T04:21:31.581Z,96207.78
2023-01-02T04:22:42.213Z,96202.34
2023-01-02T04:23:48.315Z,96200.16
2023-01-02T04:24:58.177Z,96182.25
2023-01-02T04:26:06.027Z,96180.03
2023-01-02T04:27:15.374Z,96183.34
2023-01-02T04:28:25.673Z,96188.25
2023-01-02T04:29:28.247Z,96184.34
2023-01-02T04:30:37.943Z,96183.91
2023-01-02T04:31:48.695Z,96186.59
2023-01-02T04:32:51.753Z,96188.72
2023-01-02T04:33:59.326Z,96181.09
2023-01-02T04:35:06.071Z,96174.56
2023-01-02T04:36:15.360Z,96182.94
2023-01-02T04:37:31.342Z,96181.75
2023-01-02T04:38:35.871Z,96180.97
2023-01-02T04:39:38.923Z,96172.34
2023-01-02T04:40:44.254Z,96175.88
2023-01-02T04:41:46.238Z,96171.31
2023-01-02T04:42:50.825Z,96168.25
2023-01-02T04:43:53.116Z,96170.16
2023-01-02T04:44:57.719Z,96175.56
2023-01-02T04:45:59.715Z,96170.69
2023-01-02T04:47:04.455Z,96168.63
2023-01-02T04:48:06.781Z,96172.00
2023-01-02T04:49:12.459Z,96165.81
2023-01-02T04:50:14.513Z,96167.63
2023-01-02T04:51:21.747Z,96171.75
2023-01-02T04:52:23.683Z,96157.78
2023-01-02T04:53:28.200Z,96167.41
2023-01-02T04:54:30.177Z,96156.28
2023-01-02T04:55:34.711Z,96149.94
2023-01-02T04:56:36.645Z,96154.91
2023-01-02T04:57:41.482Z,96148.47
2023-01-02T04:58:44.290Z,96154.50
2023-01-02T04:59:48.783Z,96156.72
2023-01-02T05:00:50.713Z,96166.63
2023-01-02T05:01:55.398Z,96155.78
2023-01-02T05:02:57.589Z,96154.47
2023-01-02T05:04:02.177Z,96155.47
2023-01-02T05:05:05.107Z,96155.69
2023-01-02T05:06:10.354Z,96159.44
2023-01-02T05:07:14.895Z,96156.78
2023-01-02T05:08:19.450Z,96166.63
2023-01-02T05:09:21.390Z,96165.16
2023-01-02T05:10:25.920Z,96157.53
2023-01-02T05:11:28.067Z,96161.50
2023-01-02T05:12:35.701Z,96164.16
2023-01-02T05:13:37.814Z,96168.00
2023-01-02T05:14:42.374Z,96162.13
2023-01-02T05:15:44.376Z,96158.09
2023-01-02T05:16:48.945Z,96167.31
2023-01-02T05:17:50.943Z,96160.69
2023-01-02T05:18:55.787Z,96161.06
2023-01-02T05:19:57.750Z,96164.97
2023-01-02T05:21:06.415Z,96160.84
2023-01-02T05:22:26.318Z,96155.91
2023-01-02T05:23:46.330Z,96162.91
2023-01-02T05:24:48.251Z,96172.81
2023-01-02T05:25:52.805Z,96168.72
2023-01-02T05:26:55.106Z,96163.44
2023-01-02T05:27:59.660Z,96159.50
2023-01-02T05:29:02.059Z,96162.44
2023-01-02T05:30:07.529Z,96161.47
2023-01-02T05:31:10.206Z,96159.81
2023-01-02T05:32:14.847Z,96174.75
2023-01-02T05:33:16.816Z,96170.44
2023-01-02T05:34:21.349Z,96171.38
2023-01-02T05:35:28.513Z,96170.75
2023-01-02T05:36:36.557Z,96171.59
2023-01-02T05:37:38.529Z,96174.13
2023-01-02T05:38:45.675Z,96167.03
2023-01-02T05:39:47.619Z,96174.81
2023-01-02T05:40:52.116Z,96167.56
2023-01-02T05:41:54.049Z,96164.97
2023-01-02T05:42:58.617Z,96166.50
2023-01-02T05:44:00.588Z,96160.47
2023-01-02T05:45:05.178Z,96158.09
2023-01-02T05:46:08.614Z,96159.19
2023-01-02T05:47:16.543Z,96168.16
2023-01-02T05:48:18.815Z,96165.09
2023-01-02T05:49:23.361Z,96164.81
2023-01-02T05:50:25.506Z,96177.19
2023-01-02T05:51:30.166Z,96166.97
2023-01-02T05:52:32.139Z,96170.69
2023-01-02T05:53:36.990Z,96161.53
2023-01-02T05:54:41.621Z,96166.72
2023-01-02T05:55:46.178Z,96161.53
2023-01-02T05:56:48.100Z,96169.53
2023-01-02T05:57:59.413Z,96167.16
2023-01-02T05:59:01.330Z,96172.66
2023-01-02T06:00:06.631Z,96173.34
2023-01-02T06:01:10.937Z,96171.66
2023-01-02T06:02:15.563Z,96174.63
2023-01-02T06:03:17.650Z,96179.13
2023-01-02T06:04:22.337Z,96170.88
2023-01-02T06:05:24.298Z,96180.25
2023-01-02T06:06:32.431Z,96175.19
2023-01-02T06:07:34.392Z,96177.25
2023-01-02T06:08:39.297Z,96180.81
2023-01-02T06:09:43.981Z,96188.66
2023-01-02T06:10:52.555Z,96181.66
2023-01-02T06:11:57.133Z,96185.00
2023-01-02T06:12:59.127Z,96178.56
2023-01-02T06:14:03.696Z,96178.03
2023-01-02T06:15:06.638Z,96172.50
2023-01-02T06:16:12.856Z,96167.38
2023-01-02T06:17:14.867Z,96175.03
2023-01-02T06:18:19.435Z,96175.78
2023-01-02T06:19:21.398Z,96181.13
2023-01-02T06:20:25.947Z,96175.34
2023-01-02T06:21:27.935Z,96173.19
2023-01-02T06:22:33.128Z,96177.94
2023-01-02T06:23:37.787Z,96171.34
2023-01-02T06:24:39.787Z,96172.44
2023-01-02T06:25:46.978Z,96182.66
2023-01-02T06:26:51.555Z,96174.03
2023-01-02T06:27:53.512Z,96171.34
2023-01-02T06:28:59.984Z,96177.00
2023-01-02T06:30:02.007Z,96170.06
2023-01-02T06:31:09.482Z,96176.25
2023-01-02T06:32:11.559Z,96175.31
2023-01-02T06:33:16.181Z,96181.03
2023-01-02T06:34:18.128Z,96177.91
2023-01-02T06:35:22.663Z,96173.50
2023-01-02T06:36:25.572Z,96174.84
2023-01-02T06:37:30.109Z,96171.41
2023-01-02T06:38:32.464Z,96173.34
2023-01-02T06:39:37.014Z,96172.78
2023-01-02T06:40:38.967Z,96180.00
2023-01-02T06:41:46.154Z,96168.78
2023-01-02T06:42:48.093Z,96167.59
2023-01-02T06:43:53.849Z,96171.53
2023-01-02T06:44:55.819Z,96162.31
2023-01-02T06:46:01.340Z,96167.50
2023-01-02T06:47:03.364Z,96163.94
2023-01-02T06:48:08.672Z,96163.28
2023-01-02T06:49:10.636Z,96159.41
2023-01-02T06:50:15.218Z,96166.44
2023-01-02T06:51:21.215Z,96169.72
2023-01-02T06:52:23.202Z,96177.56
2023-01-02T06:53:27.776Z,96173.78
2023-01-02T06:54:32.413Z,96172.00
2023-01-02T06:55:34.794Z,96185.53
2023-01-02T06:56:39.350Z,96187.72
2023-01-02T06:57:43.925Z,96189.88
2023-01-02T06:58:48.819Z,96188.28
2023-01-02T06:59:50.747Z,96187.94
2023-01-02T07:00:55.712Z,96190.81
2023-01-02T07:02:00.378Z,96191.97
2023-01-02T07:03:02.427Z,96191.59
2023-01-02T07:04:07.094Z,96190.81
2023-01-02T07:05:10.769Z,96192.53
2023-01-02T07:06:17.760Z,96188.38
2023-01-02T07:07:22.349Z,96187.72
2023-01-02T07:08:24.281Z,96181.09
2023-01-02T07:09:29.062Z,96187.38
2023-01-02T07:10:31.020Z,96192.91
2023-01-02T07:11:35.875Z,96189.50
2023-01-02T07:12:38.380Z,96192.69
2023-01-02T07:13:46.896Z,96194.03
2023-01-02T07:14:51.421Z,96191.00
2023-01-02T07:15:53.396Z,96187.78
2023-01-02T07:16:57.925Z,96187.50
2023-01-02T07:17:59.907Z,96198.03
2023-01-02T07:19:04.504Z,96196.50
2023-01-02T07:20:07.672Z,96202.00
2023-01-02T07:21:13.457Z,96204.81
2023-01-02T07:22:17.955Z,96204.66
2023-01-02T07:23:19.909Z,96201.56
2023-01-02T07:24:24.441Z,96216.34
2023-01-02T07:25:26.412Z,96218.63
2023-01-02T07:26:30.991Z,96218.63
2023-01-02T07:27:33.301Z,96216.34
2023-01-02T07:28:38.857Z,96222.03
2023-01-02T07:29:43.529Z,96220.56
2023-01-02T07:30:48.045Z,96226.84
2023-01-02T07:31:52.605Z,96228.81
2023-01-02T07:32:57.298Z,96220.34
2023-01-02T07:33:59.483Z,96223.81
2023-01-02T07:35:04.032Z,96221.38
2023-01-02T07:36:08.462Z,96221.38
2023-01-02T07:37:13.090Z,96226.41
2023-01-02T07:38:15.035Z,96224.59
2023-01-02T07:39:19.572Z,96222.25
2023-01-02T07:40:21.513Z,96226.72
2023-01-02T07:41:27.990Z,96226.06
2023-01-02T07:42:29.929Z,96228.72
2023-01-02T07:43:34.424Z,96237.44
2023-01-02T07:44:38.930Z,96229.88
2023-01-02T07:45:49.933Z,96228.34
2023-01-02T07:46:55.300Z,96228.66
2023-01-02T07:47:58.275Z,96238.31
2023-01-02T07:49:02.790Z,96237.59
2023-01-02T07:50:05.707Z,96241.78
2023-01-02T07:51:10.928Z,96245.53
2023-01-02T07:52:12.894Z,96239.72
2023-01-02T07:53:17.489Z,96248.47
2023-01-02T07:54:22.162Z,96247.78
2023-01-02T07:55:24.134Z,96253.13
2023-01-02T07:56:29.005Z,96258.44
2023-01-02T07:57:31.396Z,96260.59
2023-01-02T07:58:36.538Z,96264.06
2023-01-02T07:59:41.050Z,96264.22
2023-01-02T08:00:48.170Z,96264.38
2023-01-02T08:01:52.850Z,96260.00
2023-01-02T08:02:57.539Z,96265.19
2023-01-02T08:04:02.846Z,96266.03
2023-01-02T08:05:05.864Z,96267.28
2023-01-02T08:06:12.118Z,96265.31
2023-01-02T08:07:14.160Z,96263.50
2023-01-02T08:08:19.216Z,96262.47
2023-01-02T08:09:23.980Z,96272.75
2023-01-02T08:10:28.617Z,96268.09
2023-01-02T08:11:30.546Z,96271.44
2023-01-02T08:12:35.140Z,96274.63
2023-01-02T08:13:37.346Z,96274.63
2023-01-02T08:14:41.851Z,96278.25
2023-01-02T08:15:46.649Z,96275.78
2023-01-02T08:16:51.225Z,96281.97
2023-01-02T08:17:55.960Z,96285.59
2023-01-02T08:19:00.511Z,96281.81
2023-01-02T08:20:07.662Z,96282.97
2023-01-02T08:21:13.778Z,96279.25
2023-01-02T08:22:15.757Z,96282.16
2023-01-02T08:23:20.394Z,96269.94
2023-01-02T08:24:24.921Z,96266.41
2023-01-02T08:25:26.917Z,96276.81
2023-01-02T08:26:31.444Z,96271.47
2023-01-02T08:27:33.549Z,96279.34
2023-01-02T08:28:39.248Z,96271.28
2023-01-02T08:29:43.974Z,96274.66
2023-01-02T08:30:51.117Z,96278.88
2023-01-02T08:31:55.681Z,96278.03
2023-01-02T08:33:01.057Z,96269.47
2023-01-02T08:34:03.045Z,96277.25
2023-01-02T08:35:09.251Z,96277.25
2023-01-02T08:36:15.490Z,96277.34
2023-01-02T08:37:20.023Z,96282.28
2023-01-02T08:38:24.590Z,96281.38
2023-01-02T08:39:30.175Z,96287.59
2023-01-02T08:40:34.764Z,96291.56
2023-01-02T08:41:41.131Z,96285.91
2023-01-02T08:42:45.673Z,96281.78
2023-01-02T08:43:50.224Z,96284.88
2023-01-02T08:44:54.911Z,96285.88
2023-01-02T08:46:04.992Z,96284.97
2023-01-02T08:47:09.644Z,96283.06
2023-01-02T08:48:20.805Z,96280.81
2023-01-02T08:49:26.037Z,96289.00
2023-01-02T08:50:30.562Z,96278.50
2023-01-02T08:51:35.123Z,96285.19
2023-01-02T08:52:39.646Z,96287.72
2023-01-02T08:53:41.588Z,96279.81
2023-01-02T08:54:46.123Z,96282.06
2023-01-02T08:55:50.662Z,96287.03
2023-01-02T08:56:55.205Z,96286.88
2023-01-02T08:57:59.709Z,96294.59
2023-01-02T08:59:06.327Z,96290.66
2023-01-02T09:00:10.284Z,96287.94
2023-01-02T09:01:17.520Z,96291.13
2023-01-02T09:02:22.354Z,96287.38
2023-01-02T09:03:24.502Z,96292.31
2023-01-02T09:04:29.013Z,96287.72
2023-01-02T09:05:31.190Z,96291.56
2023-01-02T09:06:39.036Z,96289.63
2023-01-02T09:07:43.612Z,96283.41
2023-01-02T09:08:48.374Z,96292.63
2023-01-02T09:09:53.217Z,96297.53
2023-01-02T09:10:55.174Z,96293.09
2023-01-02T09:12:00.449Z,96296.28
2023-01-02T09:13:05.026Z,96296.09
2023-01-02T09:14:07.102Z,96297.53
2023-01-02T09:15:12.499Z,96303.31
2023-01-02T09:16:19.704Z,96296.84
2023-01-02T09:17:24.361Z,96290.44
2023-01-02T09:18:29.525Z,96287.38
2023-01-02T09:19:34.301Z,96297.28
2023-01-02T09:20:42.823Z,96293.22
2023-01-02T09:21:47.878Z,96289.59
2023-01-02T09:22:49.777Z,96306.63
2023-01-02T09:23:54.685Z,96306.25
2023-01-02T09:24:59.259Z,96300.50
2023-01-02T09:26:02.095Z,96299.00
2023-01-02T09:27:06.857Z,96300.03
2023-01-02T09:28:11.374Z,96304.78
2023-01-02T09:29:17.113Z,96306.63
2023-01-02T09:30:22.038Z,96308.16
2023-01-02T09:31:29.257Z,96307.75
2023-01-02T09:32:33.773Z,96316.03
2023-01-02T09:33:38.429Z,96312.22
2023-01-02T09:34:43.011Z,96310.19
2023-01-02T09:35:44.978Z,96311.84
2023-01-02T09:36:50.203Z,96307.00
2023-01-02T09:37:54.711Z,96312.03
2023-01-02T09:39:01.187Z,96306.91
2023-01-02T09:40:05.956Z,96311.28
2023-01-02T09:41:25.415Z,96315.09
2023-01-02T09:42:30.277Z,96312.75
2023-01-02T09:43:40.334Z,96317.78
2023-01-02T09:44:48.970Z,96319.13
2023-01-02T09:45:54.969Z,96319.50
2023-01-02T09:47:05.354Z,96316.84
2023-01-02T09:48:17.851Z,96323.81
2023-01-02T09:49:25.807Z,96328.00
2023-01-02T09:50:30.411Z,96336.38
2023-01-02T09:51:37.305Z,96336.38
2023-01-02T09:52:45.781Z,96339.06
2023-01-02T09:53:47.957Z,96334.22
2023-01-02T09:54:53.349Z,96340.97
2023-01-02T09:56:05.318Z,96328.38
2023-01-02T09:57:27.717Z,96340.34
2023-01-02T09:58:41.773Z,96350.16
2023-01-02T09:59:54.286Z,96345.31
2023-01-02T10:01:00.216Z,96343.53
2023-01-02T10:02:25.057Z,96338.22
2023-01-02T10:03:39.828Z,96336.31
2023-01-02T10:04:59.393Z,96338.69
2023-01-02T10:06:18.510Z,96346.25
2023-01-02T10:07:32.929Z,96335.19
2023-01-02T10:08:47.897Z,96337.44
2023-01-02T10:10:00.365Z,96337.84
2023-01-02T10:11:19.685Z,96337.38
2023-01-02T10:12:32.808Z,96331.38
2023-01-02T10:14:17.292Z,96329.28
2023-01-02T10:14:57.398Z,96333.56
2023-01-02T10:16:16.439Z,96344.56
2023-01-02T10:17:24.929Z,96329.28
2023-01-02T10:18:33.617Z,96334.50
2023-01-02T10:19:45.428Z,96335.50
2023-01-02T10:20:57.269Z,96329.88
2023-01-02T10:22:00.917Z,96335.81
2023-01-02T10:23:09.538Z,96337.91
2023-01-02T10:24:17.551Z,96346.81
2023-01-02T10:25:25.222Z,96342.00
2023-01-02T10:26:35.285Z,96342.00
2023-01-02T10:27:44.026Z,96346.59
2023-01-02T10:29:32.998Z,96343.19
2023-01-02T10:30:45.402Z,96342.75
2023-01-02T10:31:55.851Z,96339.78
2023-01-02T10:33:07.166Z,96343.56
2023-01-02T10:34:17.560Z,96341.88
2023-01-02T10:35:38.116Z,96341.28
2023-01-02T10:36:44.961Z,96340.88
2023-01-02T10:37:49.561Z,96338.28
2023-01-02T10:38:54.678Z,96331.97
2023-01-02T10:41:05.792Z,96328.81
2023-01-02T10:42:14.395Z,96329.44
2023-01-02T10:44:37.523Z,96318.19
2023-01-02T10:45:42.321Z,96318.31
2023-01-02T10:46:47.000Z,96317.34
2023-01-02T10:47:51.720Z,96322.19
2023-01-02T10:48:59.999Z,96316.72
2023-01-02T10:50:06.460Z,96320.16
2023-01-02T10:51:18.333Z,96318.09
2023-01-02T10:52:27.895Z,96319.78
2023-01-02T10:53:33.789Z,96318.53
2023-01-02T10:54:59.977Z,96312.84
2023-01-02T10:56:05.835Z,96309.81
2023-01-02T10:57:13.970Z,96317.25
2023-01-02T10:58:24.465Z,96307.81
2023-01-02T10:59:31.633Z,96308.84
2023-01-02T11:00:39.602Z,96305.16
2023-01-02T11:01:54.075Z,96313.91
2023-01-02T11:03:00.305Z,96314.03
2023-01-02T11:04:24.566Z,96309.94
2023-01-02T11:05:29.321Z,96319.88
2023-01-02T11:06:39.301Z,96319.47
2023-01-02T11:07:52.695Z,96319.06
2023-01-02T11:09:02.186Z,96323.50
2023-01-02T11:10:07.895Z,96324.59
2023-01-02T11:11:17.410Z,96319.75
2023-01-02T11:12:27.068Z,96323.09
2023-01-02T11:13:53.811Z,96329.72
2023-01-02T11:15:15.809Z,96339.06
2023-01-02T11:16:22.000Z,96330.72
2023-01-02T11:17:28.346Z,96338.72
2023-01-02T11:18:32.572Z,96331.19
2023-01-02T11:19:46.511Z,96333.13
2023-01-02T11:20:50.875Z,96338.06
2023-01-02T11:21:56.122Z,96341.34
2023-01-02T11:23:03.439Z,96345.84
2023-01-02T11:24:11.715Z,96338.66
2023-01-02T11:25:24.555Z,96332.19
2023-01-02T11:26:27.897Z,96333.66
2023-01-02T11:27:34.543Z,96331.75
2023-01-02T11:28:43.686Z,96333.31
2023-01-02T11:29:48.067Z,96337.59
2023-01-02T11:30:54.519Z,96336.72
2023-01-02T11:32:02.177Z,96340.28
2023-01-02T11:33:20.873Z,96337.09
2023-01-02T11:34:27.195Z,96333.66
2023-01-02T11:35:37.456Z,96328.25
2023-01-02T11:36:46.812Z,96321.41
2023-01-02T11:37:52.750Z,96324.59
2023-01-02T11:38:58.707Z,96320.50
2023-01-02T11:40:03.706Z,96333.22
2023-01-02T11:41:09.819Z,96327.44
2023-01-02T11:42:35.094Z,96324.78
2023-01-02T11:43:49.263Z,96334.78
2023-01-02T11:45:00.580Z,96333.81
2023-01-02T11:46:10.287Z,96334.44
2023-01-02T11:47:17.130Z,96339.16
2023-01-02T11:48:22.195Z,96324.16
2023-01-02T11:49:29.762Z,96329.94
2023-01-02T11:50:39.562Z,96333.13
2023-01-02T11:51:45.020Z,96325.94
2023-01-02T11:52:54.841Z,96324.13
2023-01-02T11:54:03.416Z,96334.84
2023-01-02T11:55:16.199Z,96329.94
2023-01-02T11:56:27.561Z,96333.34
2023-01-02T11:57:37.897Z,96328.47
2023-01-02T11:58:49.819Z,96329.41
2023-01-02T11:59:54.299Z,96335.41
2023-01-02T12:01:06.039Z,96338.88
2023-01-02T12:02:17.978Z,96339.94
2023-01-02T12:03:25.261Z,96339.97
2023-01-02T12:04:31.046Z,96331.53
2023-01-02T12:05:47.782Z,96334.56
2023-01-02T12:07:09.861Z,96344.91
2023-01-02T12:08:26.201Z,96339.19
2023-01-02T12:09:38.284Z,96341.63
2023-01-02T12:10:53.925Z,96337.41
2023-01-02T12:12:11.839Z,96336.25
2023-01-02T12:13:45.581Z,96352.53
2023-01-02T12:15:07.874Z,96338.69
2023-01-02T12:16:25.369Z,96345.25
2023-01-02T12:17:37.120Z,96349.97
2023-01-02T12:18:56.820Z,96351.19
2023-01-02T12:20:17.663Z,96349.41
2023-01-02T12:21:26.985Z,96359.88
2023-01-02T12:22:52.836Z,96353.81
2023-01-02T12:24:31.976Z,96352.69
2023-01-02T12:25:56.137Z,96355.88
2023-01-02T12:27:07.740Z,96353.81
2023-01-02T12:28:21.065Z,96347.06
2023-01-02T12:30:03.622Z,96352.47
2023-01-02T12:31:22.117Z,96355.78
2023-01-02T12:32:56.718Z,96349.50
2023-01-02T12:34:11.251Z,96349.06
2023-01-02T12:35:37.212Z,96353.78
2023-01-02T12:37:00.951Z,96355.47
2023-01-02T12:38:10.274Z,96354.13
2023-01-02T12:39:36.771Z,96355.47
2023-01-02T12:41:00.645Z,96354.53
2023-01-02T12:42:20.932Z,96352.63
2023-01-02T12:43:47.978Z,96362.44
2023-01-02T12:44:55.443Z,96374.66
2023-01-02T12:46:08.413Z,96356.38
2023-01-02T12:47:30.890Z,96355.75
2023-01-02T12:48:49.003Z,96353.66
2023-01-02T12:50:21.610Z,96357.84
2023-01-02T12:51:33.773Z,96346.97
2023-01-02T12:52:54.990Z,96345.84
2023-01-02T12:54:26.424Z,96343.13
2023-01-02T12:55:44.604Z,96353.13
2023-01-02T12:56:57.519Z,96346.13
2023-01-02T12:58:09.599Z,96349.78
2023-01-02T12:59:40.499Z,96343.22
2023-01-02T13:01:07.085Z,96344.22
2023-01-02T13:02:16.078Z,96343.63
2023-01-02T13:03:45.495Z,96339.63
2023-01-02T13:04:52.888Z,96335.44
2023-01-02T13:06:02.619Z,96328.34
2023-01-02T13:07:15.353Z,96330.88
2023-01-02T13:08:26.340Z,96339.91
2023-01-02T13:09:35.251Z,96338.06
2023-01-02T13:10:38.620Z,96339.16
2023-01-02T13:11:46.639Z,96348.50
2023-01-02T13:12:51.588Z,96345.97
2023-01-02T13:13:57.899Z,96343.00
2023-01-02T13:15:05.600Z,96336.88
2023-01-02T13:16:24.768Z,96346.03
2023-01-02T13:17:40.537Z,96358.56